Lauderdale, Mississippi
Current Conditions -  °F | °C
As of 10:56 AM on Saturday 25 Oct 2014 (Local Time) from KNMM Reporting Station
Clear Clear  
Wind Chill: 70°   Ceiling: Unl
Heat Index: 70°   Visibility: 10mi
Dew Point: 54°   Wind: 3mph
Humidity: 57%   Direction: NA
Pressure: 30.16"   Gusts: NA
Location:  32.52°N, 88.51°W
Report Text: KNMM 251556Z AUTO VRB03KT 10SM CLR 21/12 A3016 RMK AO2 SLP221 T02110122 $
Loading
Personal Weather Stations






























Interactive Weather Map
Tropical Storm Tracking
New forecast layout! Learn more

10-Day Weather Forecast

Advertisements
Track Severe Weather on mobile